sensor_id;sensor_type;location;lat;lon;timestamp;temperature;humidity
51815;DHT22;37874;53.158;6.766;2022-10-16T01:02:07;18.80;60.30
51815;DHT22;37874;53.158;6.766;2022-10-16T01:04:45;18.80;60.30
51815;DHT22;37874;53.158;6.766;2022-10-16T01:15:44;18.80;60.30
51815;DHT22;37874;53.158;6.766;2022-10-16T01:21:01;18.80;60.30
51815;DHT22;37874;53.158;6.766;2022-10-16T01:31:57;18.80;60.30
51815;DHT22;37874;53.158;6.766;2022-10-16T01:34:50;18.80;60.20
51815;DHT22;37874;53.158;6.766;2022-10-16T01:37:36;18.70;60.20
51815;DHT22;37874;53.158;6.766;2022-10-16T01:40:03;18.70;60.20
51815;DHT22;37874;53.158;6.766;2022-10-16T01:42:36;18.70;60.20
51815;DHT22;37874;53.158;6.766;2022-10-16T01:45:05;18.70;60.20
51815;DHT22;37874;53.158;6.766;2022-10-16T01:47:34;18.70;60.20
51815;DHT22;37874;53.158;6.766;2022-10-16T01:50:02;18.70;60.20
51815;DHT22;37874;53.158;6.766;2022-10-16T01:52:32;18.70;60.20
51815;DHT22;37874;53.158;6.766;2022-10-16T01:54:59;18.90;60.30
51815;DHT22;37874;53.158;6.766;2022-10-16T01:57:28;18.90;60.30
51815;DHT22;37874;53.158;6.766;2022-10-16T01:59:58;18.70;60.20
51815;DHT22;37874;53.158;6.766;2022-10-16T02:02:27;18.70;60.10
51815;DHT22;37874;53.158;6.766;2022-10-16T02:04:58;18.70;60.10
51815;DHT22;37874;53.158;6.766;2022-10-16T02:07:27;18.70;60.10
51815;DHT22;37874;53.158;6.766;2022-10-16T02:09:52;18.70;60.10
51815;DHT22;37874;53.158;6.766;2022-10-16T02:12:25;18.70;60.20
51815;DHT22;37874;53.158;6.766;2022-10-16T02:14:52;18.70;60.20
51815;DHT22;37874;53.158;6.766;2022-10-16T02:17:19;18.80;60.20
51815;DHT22;37874;53.158;6.766;2022-10-16T02:19:47;18.70;60.10
51815;DHT22;37874;53.158;6.766;2022-10-16T02:22:38;18.70;60.10
51815;DHT22;37874;53.158;6.766;2022-10-16T02:25:17;18.80;60.10
51815;DHT22;37874;53.158;6.766;2022-10-16T02:28:08;18.60;60.00
51815;DHT22;37874;53.158;6.766;2022-10-16T02:30:48;18.70;60.00
51815;DHT22;37874;53.158;6.766;2022-10-16T02:33:17;18.70;60.00
51815;DHT22;37874;53.158;6.766;2022-10-16T02:35:44;18.70;60.00
51815;DHT22;37874;53.158;6.766;2022-10-16T02:38:12;18.70;60.00
51815;DHT22;37874;53.158;6.766;2022-10-16T02:40:40;18.70;60.00
51815;DHT22;37874;53.158;6.766;2022-10-16T02:43:06;18.70;60.00
51815;DHT22;37874;53.158;6.766;2022-10-16T02:45:33;18.70;60.00
51815;DHT22;37874;53.158;6.766;2022-10-16T02:47:58;18.70;60.00
51815;DHT22;37874;53.158;6.766;2022-10-16T02:50:24;18.60;60.00
51815;DHT22;37874;53.158;6.766;2022-10-16T02:52:50;18.70;60.00
51815;DHT22;37874;53.158;6.766;2022-10-16T02:55:16;18.60;60.00
51815;DHT22;37874;53.158;6.766;2022-10-16T02:57:42;18.70;60.00
51815;DHT22;37874;53.158;6.766;2022-10-16T03:00:09;18.70;60.00
51815;DHT22;37874;53.158;6.766;2022-10-16T03:02:36;18.70;59.90
51815;DHT22;37874;53.158;6.766;2022-10-16T03:05:02;18.70;60.00
51815;DHT22;37874;53.158;6.766;2022-10-16T03:07:28;18.70;60.00
51815;DHT22;37874;53.158;6.766;2022-10-16T03:09:53;18.70;60.00
51815;DHT22;37874;53.158;6.766;2022-10-16T03:12:19;18.70;60.00
51815;DHT22;37874;53.158;6.766;2022-10-16T03:14:45;18.70;60.00
51815;DHT22;37874;53.158;6.766;2022-10-16T03:17:11;18.70;60.00
51815;DHT22;37874;53.158;6.766;2022-10-16T03:19:38;18.60;59.90
51815;DHT22;37874;53.158;6.766;2022-10-16T03:22:04;18.70;60.00
51815;DHT22;37874;53.158;6.766;2022-10-16T03:24:29;18.70;60.00
51815;DHT22;37874;53.158;6.766;2022-10-16T03:26:55;18.70;60.00
51815;DHT22;37874;53.158;6.766;2022-10-16T03:29:21;18.70;60.10
51815;DHT22;37874;53.158;6.766;2022-10-16T03:31:46;18.70;60.00
51815;DHT22;37874;53.158;6.766;2022-10-16T03:34:13;18.70;60.00
51815;DHT22;37874;53.158;6.766;2022-10-16T03:36:39;18.70;60.00
51815;DHT22;37874;53.158;6.766;2022-10-16T03:39:05;18.70;60.00
51815;DHT22;37874;53.158;6.766;2022-10-16T03:41:30;18.60;60.00
51815;DHT22;37874;53.158;6.766;2022-10-16T03:43:56;18.70;60.00
51815;DHT22;37874;53.158;6.766;2022-10-16T03:46:21;18.70;60.00
51815;DHT22;37874;53.158;6.766;2022-10-16T03:48:47;18.70;60.00
51815;DHT22;37874;53.158;6.766;2022-10-16T03:51:13;18.70;60.10
51815;DHT22;37874;53.158;6.766;2022-10-16T03:53:38;18.70;60.00
51815;DHT22;37874;53.158;6.766;2022-10-16T03:56:04;18.60;60.00
51815;DHT22;37874;53.158;6.766;2022-10-16T03:58:30;18.70;60.00
51815;DHT22;37874;53.158;6.766;2022-10-16T04:00:55;18.60;60.00
51815;DHT22;37874;53.158;6.766;2022-10-16T04:03:21;18.70;60.00
51815;DHT22;37874;53.158;6.766;2022-10-16T04:05:47;18.70;60.00
51815;DHT22;37874;53.158;6.766;2022-10-16T04:08:12;18.70;60.00
51815;DHT22;37874;53.158;6.766;2022-10-16T04:10:38;18.60;60.00
51815;DHT22;37874;53.158;6.766;2022-10-16T04:13:03;18.70;60.00
51815;DHT22;37874;53.158;6.766;2022-10-16T04:15:29;18.70;60.00
51815;DHT22;37874;53.158;6.766;2022-10-16T04:17:54;18.60;60.50
51815;DHT22;37874;53.158;6.766;2022-10-16T04:20:20;18.70;60.00
51815;DHT22;37874;53.158;6.766;2022-10-16T04:22:46;18.70;60.00
51815;DHT22;37874;53.158;6.766;2022-10-16T04:25:11;18.60;59.90
51815;DHT22;37874;53.158;6.766;2022-10-16T04:27:38;18.60;60.00
51815;DHT22;37874;53.158;6.766;2022-10-16T04:30:04;18.70;60.10
51815;DHT22;37874;53.158;6.766;2022-10-16T04:32:30;18.60;60.00
51815;DHT22;37874;53.158;6.766;2022-10-16T04:34:56;18.70;60.00
51815;DHT22;37874;53.158;6.766;2022-10-16T04:37:25;18.70;60.00
51815;DHT22;37874;53.158;6.766;2022-10-16T04:39:52;18.70;60.00
51815;DHT22;37874;53.158;6.766;2022-10-16T04:42:17;18.60;59.90
51815;DHT22;37874;53.158;6.766;2022-10-16T04:44:43;18.60;60.00
51815;DHT22;37874;53.158;6.766;2022-10-16T04:47:09;18.60;60.00
51815;DHT22;37874;53.158;6.766;2022-10-16T04:49:34;18.80;60.10
51815;DHT22;37874;53.158;6.766;2022-10-16T04:52:00;18.70;60.00
51815;DHT22;37874;53.158;6.766;2022-10-16T04:54:25;18.80;60.10
51815;DHT22;37874;53.158;6.766;2022-10-16T04:56:51;18.70;60.00
51815;DHT22;37874;53.158;6.766;2022-10-16T04:59:18;18.60;60.00
51815;DHT22;37874;53.158;6.766;2022-10-16T05:01:44;18.70;60.00
51815;DHT22;37874;53.158;6.766;2022-10-16T05:04:10;18.60;60.00
51815;DHT22;37874;53.158;6.766;2022-10-16T05:06:36;18.70;60.00
51815;DHT22;37874;53.158;6.766;2022-10-16T05:09:02;18.60;60.00
51815;DHT22;37874;53.158;6.766;2022-10-16T05:11:28;18.70;60.10
51815;DHT22;37874;53.158;6.766;2022-10-16T05:13:54;18.60;60.00
51815;DHT22;37874;53.158;6.766;2022-10-16T05:16:19;18.70;60.10
51815;DHT22;37874;53.158;6.766;2022-10-16T05:18:45;18.60;60.00
51815;DHT22;37874;53.158;6.766;2022-10-16T05:21:10;18.60;60.10
51815;DHT22;37874;53.158;6.766;2022-10-16T05:23:36;18.70;60.10
51815;DHT22;37874;53.158;6.766;2022-10-16T05:26:02;18.70;60.10
51815;DHT22;37874;53.158;6.766;2022-10-16T05:28:29;18.60;60.10
51815;DHT22;37874;53.158;6.766;2022-10-16T05:30:56;18.70;60.10
51815;DHT22;37874;53.158;6.766;2022-10-16T05:33:24;18.60;60.10
51815;DHT22;37874;53.158;6.766;2022-10-16T05:35:51;18.80;60.30
51815;DHT22;37874;53.158;6.766;2022-10-16T05:38:18;18.60;60.10
51815;DHT22;37874;53.158;6.766;2022-10-16T05:40:50;18.70;60.20
51815;DHT22;37874;53.158;6.766;2022-10-16T05:43:16;18.60;60.10
51815;DHT22;37874;53.158;6.766;2022-10-16T05:45:41;18.60;60.20
51815;DHT22;37874;53.158;6.766;2022-10-16T05:48:07;18.60;60.20
51815;DHT22;37874;53.158;6.766;2022-10-16T05:50:32;18.60;60.20
51815;DHT22;37874;53.158;6.766;2022-10-16T05:52:58;18.60;60.20
51815;DHT22;37874;53.158;6.766;2022-10-16T05:55:23;18.60;60.20
51815;DHT22;37874;53.158;6.766;2022-10-16T05:57:49;18.60;60.20
51815;DHT22;37874;53.158;6.766;2022-10-16T06:00:15;18.60;60.30
51815;DHT22;37874;53.158;6.766;2022-10-16T06:02:40;18.60;60.30
51815;DHT22;37874;53.158;6.766;2022-10-16T06:05:06;18.60;60.30
51815;DHT22;37874;53.158;6.766;2022-10-16T06:07:34;18.60;60.30
51815;DHT22;37874;53.158;6.766;2022-10-16T06:10:01;18.70;60.40
51815;DHT22;37874;53.158;6.766;2022-10-16T06:12:26;18.60;60.30
51815;DHT22;37874;53.158;6.766;2022-10-16T06:14:52;18.60;60.40
51815;DHT22;37874;53.158;6.766;2022-10-16T06:17:18;18.60;60.40
51815;DHT22;37874;53.158;6.766;2022-10-16T06:19:43;18.60;60.40
51815;DHT22;37874;53.158;6.766;2022-10-16T06:22:09;18.50;60.30
51815;DHT22;37874;53.158;6.766;2022-10-16T06:24:35;18.60;60.40
51815;DHT22;37874;53.158;6.766;2022-10-16T06:27:00;18.50;60.30
51815;DHT22;37874;53.158;6.766;2022-10-16T06:29:26;18.60;60.40
51815;DHT22;37874;53.158;6.766;2022-10-16T06:31:52;18.60;60.40
51815;DHT22;37874;53.158;6.766;2022-10-16T06:34:18;18.60;60.40
51815;DHT22;37874;53.158;6.766;2022-10-16T06:36:44;18.60;60.40
51815;DHT22;37874;53.158;6.766;2022-10-16T06:39:09;18.60;60.40
51815;DHT22;37874;53.158;6.766;2022-10-16T06:41:35;18.60;60.40
51815;DHT22;37874;53.158;6.766;2022-10-16T06:44:04;18.70;60.50
51815;DHT22;37874;53.158;6.766;2022-10-16T06:46:30;18.60;60.40
51815;DHT22;37874;53.158;6.766;2022-10-16T06:48:56;18.60;60.40
51815;DHT22;37874;53.158;6.766;2022-10-16T06:51:22;18.60;60.40
51815;DHT22;37874;53.158;6.766;2022-10-16T06:53:51;18.60;60.40
51815;DHT22;37874;53.158;6.766;2022-10-16T06:58:44;18.60;60.40
51815;DHT22;37874;53.158;6.766;2022-10-16T07:01:10;18.60;60.40
51815;DHT22;37874;53.158;6.766;2022-10-16T07:03:37;18.60;60.40
51815;DHT22;37874;53.158;6.766;2022-10-16T07:06:05;18.80;60.50
51815;DHT22;37874;53.158;6.766;2022-10-16T09:12:49;18.80;60.20
51815;DHT22;37874;53.158;6.766;2022-10-16T09:15:35;18.90;60.30
51815;DHT22;37874;53.158;6.766;2022-10-16T09:18:32;18.90;60.30
51815;DHT22;37874;53.158;6.766;2022-10-16T09:21:13;18.90;60.30
51815;DHT22;37874;53.158;6.766;2022-10-16T09:23:40;18.90;60.30
51815;DHT22;37874;53.158;6.766;2022-10-16T09:26:10;18.90;60.30
51815;DHT22;37874;53.158;6.766;2022-10-16T09:28:36;19.40;60.60
51815;DHT22;37874;53.158;6.766;2022-10-16T09:31:02;18.90;60.30
51815;DHT22;37874;53.158;6.766;2022-10-16T09:33:33;18.90;60.30
51815;DHT22;37874;53.158;6.766;2022-10-16T09:36:03;18.90;60.40
51815;DHT22;37874;53.158;6.766;2022-10-16T09:38:34;18.90;60.40
51815;DHT22;37874;53.158;6.766;2022-10-16T09:41:21;18.90;60.40
51815;DHT22;37874;53.158;6.766;2022-10-16T09:43:57;18.90;60.40
51815;DHT22;37874;53.158;6.766;2022-10-16T09:46:33;18.90;60.40
51815;DHT22;37874;53.158;6.766;2022-10-16T09:49:03;18.90;60.50
51815;DHT22;37874;53.158;6.766;2022-10-16T09:51:32;19.00;60.50
51815;DHT22;37874;53.158;6.766;2022-10-16T09:54:13;19.00;60.60
51815;DHT22;37874;53.158;6.766;2022-10-16T09:56:39;18.90;60.50
51815;DHT22;37874;53.158;6.766;2022-10-16T09:59:14;19.00;60.60
51815;DHT22;37874;53.158;6.766;2022-10-16T10:01:41;19.00;60.60
51815;DHT22;37874;53.158;6.766;2022-10-16T10:04:08;19.00;60.50
51815;DHT22;37874;53.158;6.766;2022-10-16T10:06:37;19.00;60.50
51815;DHT22;37874;53.158;6.766;2022-10-16T10:09:26;19.00;60.50
51815;DHT22;37874;53.158;6.766;2022-10-16T10:11:58;19.00;60.60
51815;DHT22;37874;53.158;6.766;2022-10-16T10:15:04;19.00;60.60
51815;DHT22;37874;53.158;6.766;2022-10-16T10:17:29;19.00;60.50
51815;DHT22;37874;53.158;6.766;2022-10-16T10:19:57;19.00;60.60
51815;DHT22;37874;53.158;6.766;2022-10-16T10:22:41;19.00;60.50
51815;DHT22;37874;53.158;6.766;2022-10-16T11:01:09;19.10;60.50
51815;DHT22;37874;53.158;6.766;2022-10-16T11:03:55;19.10;60.40
51815;DHT22;37874;53.158;6.766;2022-10-16T11:06:43;19.10;60.30
51815;DHT22;37874;53.158;6.766;2022-10-16T11:09:19;19.10;60.30
51815;DHT22;37874;53.158;6.766;2022-10-16T11:12:11;19.20;60.40
51815;DHT22;37874;53.158;6.766;2022-10-16T11:14:48;19.20;60.40
51815;DHT22;37874;53.158;6.766;2022-10-16T11:17:23;19.20;60.30
51815;DHT22;37874;53.158;6.766;2022-10-16T11:20:28;19.20;60.20
51815;DHT22;37874;53.158;6.766;2022-10-16T11:23:00;19.20;60.20
51815;DHT22;37874;53.158;6.766;2022-10-16T11:25:29;19.20;60.10
51815;DHT22;37874;53.158;6.766;2022-10-16T11:33:40;19.10;59.90
51815;DHT22;37874;53.158;6.766;2022-10-16T11:36:13;19.20;60.00
51815;DHT22;37874;53.158;6.766;2022-10-16T11:41:35;19.20;59.90
51815;DHT22;37874;53.158;6.766;2022-10-16T11:44:09;19.20;59.70
51815;DHT22;37874;53.158;6.766;2022-10-16T11:46:42;19.20;59.80
51815;DHT22;37874;53.158;6.766;2022-10-16T11:49:20;19.20;59.70
51815;DHT22;37874;53.158;6.766;2022-10-16T11:54:49;19.20;59.60
51815;DHT22;37874;53.158;6.766;2022-10-16T11:57:24;19.20;59.60
51815;DHT22;37874;53.158;6.766;2022-10-16T11:59:59;19.30;59.70
51815;DHT22;37874;53.158;6.766;2022-10-16T12:07:46;19.30;59.40
51815;DHT22;37874;53.158;6.766;2022-10-16T12:10:29;19.40;59.50
51815;DHT22;37874;53.158;6.766;2022-10-16T12:12:57;19.50;59.50
51815;DHT22;37874;53.158;6.766;2022-10-16T12:15:31;19.30;59.40
51815;DHT22;37874;53.158;6.766;2022-10-16T12:17:57;19.40;59.30
51815;DHT22;37874;53.158;6.766;2022-10-16T12:20:29;19.40;59.40
51815;DHT22;37874;53.158;6.766;2022-10-16T12:23:02;19.40;59.30
51815;DHT22;37874;53.158;6.766;2022-10-16T12:25:39;19.40;59.20
51815;DHT22;37874;53.158;6.766;2022-10-16T12:30:41;19.50;59.20
51815;DHT22;37874;53.158;6.766;2022-10-16T12:33:56;19.50;59.70
51815;DHT22;37874;53.158;6.766;2022-10-16T12:36:26;19.40;59.00
51815;DHT22;37874;53.158;6.766;2022-10-16T12:38:52;19.40;59.00
51815;DHT22;37874;53.158;6.766;2022-10-16T12:43:51;19.40;59.00
51815;DHT22;37874;53.158;6.766;2022-10-16T12:48:43;19.40;59.00
51815;DHT22;37874;53.158;6.766;2022-10-16T12:54:03;19.40;58.90
51815;DHT22;37874;53.158;6.766;2022-10-16T12:57:26;19.50;59.00
51815;DHT22;37874;53.158;6.766;2022-10-16T12:59:41;19.50;59.00
51815;DHT22;37874;53.158;6.766;2022-10-16T13:08:27;19.60;59.00
51815;DHT22;37874;53.158;6.766;2022-10-16T13:19:34;19.60;58.80
51815;DHT22;37874;53.158;6.766;2022-10-16T13:29:53;19.60;58.60
51815;DHT22;37874;53.158;6.766;2022-10-16T13:32:24;19.60;58.20
51815;DHT22;37874;53.158;6.766;2022-10-16T13:34:50;19.60;58.40
51815;DHT22;37874;53.158;6.766;2022-10-16T13:37:22;19.60;58.50
51815;DHT22;37874;53.158;6.766;2022-10-16T13:39:48;19.70;58.50
51815;DHT22;37874;53.158;6.766;2022-10-16T13:42:26;19.90;58.20
51815;DHT22;37874;53.158;6.766;2022-10-16T13:44:53;19.80;58.20
51815;DHT22;37874;53.158;6.766;2022-10-16T13:47:28;19.80;58.30
51815;DHT22;37874;53.158;6.766;2022-10-16T13:52:26;19.90;58.20
51815;DHT22;37874;53.158;6.766;2022-10-16T13:54:51;19.90;58.10
51815;DHT22;37874;53.158;6.766;2022-10-16T13:57:17;19.90;58.00
51815;DHT22;37874;53.158;6.766;2022-10-16T13:59:43;20.00;57.90
51815;DHT22;37874;53.158;6.766;2022-10-16T14:04:47;20.10;57.60
51815;DHT22;37874;53.158;6.766;2022-10-16T14:07:18;20.10;57.50
51815;DHT22;37874;53.158;6.766;2022-10-16T14:09:48;20.20;57.30
51815;DHT22;37874;53.158;6.766;2022-10-16T14:12:15;20.30;57.20
51815;DHT22;37874;53.158;6.766;2022-10-16T14:14:43;20.40;56.80
51815;DHT22;37874;53.158;6.766;2022-10-16T14:17:18;20.50;56.90
51815;DHT22;37874;53.158;6.766;2022-10-16T14:19:49;20.50;56.80
51815;DHT22;37874;53.158;6.766;2022-10-16T14:24:49;20.60;56.30
51815;DHT22;37874;53.158;6.766;2022-10-16T14:27:35;20.70;56.10
51815;DHT22;37874;53.158;6.766;2022-10-16T14:32:34;20.80;55.70
51815;DHT22;37874;53.158;6.766;2022-10-16T14:35:00;20.90;55.80
51815;DHT22;37874;53.158;6.766;2022-10-16T14:37:28;20.90;55.60
51815;DHT22;37874;53.158;6.766;2022-10-16T14:39:55;20.90;55.50
51815;DHT22;37874;53.158;6.766;2022-10-16T14:42:23;21.00;55.60
51815;DHT22;37874;53.158;6.766;2022-10-16T14:44:54;20.90;55.40
51815;DHT22;37874;53.158;6.766;2022-10-16T14:47:23;20.90;55.30
51815;DHT22;37874;53.158;6.766;2022-10-16T14:49:51;20.90;55.20
51815;DHT22;37874;53.158;6.766;2022-10-16T14:52:17;20.90;55.20
51815;DHT22;37874;53.158;6.766;2022-10-16T14:54:43;20.90;55.00
51815;DHT22;37874;53.158;6.766;2022-10-16T14:57:20;20.90;55.00
51815;DHT22;37874;53.158;6.766;2022-10-16T14:59:48;20.90;54.90
51815;DHT22;37874;53.158;6.766;2022-10-16T15:02:18;20.90;54.90
51815;DHT22;37874;53.158;6.766;2022-10-16T15:04:46;20.90;54.90
51815;DHT22;37874;53.158;6.766;2022-10-16T15:07:12;20.80;54.80
51815;DHT22;37874;53.158;6.766;2022-10-16T15:09:38;20.80;54.80
51815;DHT22;37874;53.158;6.766;2022-10-16T15:12:03;20.70;54.80
51815;DHT22;37874;53.158;6.766;2022-10-16T15:14:29;20.70;54.70
51815;DHT22;37874;53.158;6.766;2022-10-16T15:16:55;20.70;54.90
51815;DHT22;37874;53.158;6.766;2022-10-16T15:19:20;20.60;55.00
51815;DHT22;37874;53.158;6.766;2022-10-16T15:21:47;20.70;54.70
51815;DHT22;37874;53.158;6.766;2022-10-16T15:24:13;20.60;54.80
51815;DHT22;37874;53.158;6.766;2022-10-16T15:26:39;20.50;54.90
51815;DHT22;37874;53.158;6.766;2022-10-16T15:29:05;20.50;55.00
51815;DHT22;37874;53.158;6.766;2022-10-16T15:31:32;20.50;55.10
51815;DHT22;37874;53.158;6.766;2022-10-16T15:33:57;20.50;55.20
51815;DHT22;37874;53.158;6.766;2022-10-16T15:36:30;20.50;55.30
51815;DHT22;37874;53.158;6.766;2022-10-16T15:38:56;20.40;55.30
51815;DHT22;37874;53.158;6.766;2022-10-16T15:41:22;20.40;55.40
51815;DHT22;37874;53.158;6.766;2022-10-16T15:43:49;20.40;55.40
51815;DHT22;37874;53.158;6.766;2022-10-16T15:46:18;20.40;55.60
51815;DHT22;37874;53.158;6.766;2022-10-16T15:48:44;20.30;55.60
51815;DHT22;37874;53.158;6.766;2022-10-16T15:51:10;20.30;55.70
51815;DHT22;37874;53.158;6.766;2022-10-16T15:53:36;20.30;55.80
51815;DHT22;37874;53.158;6.766;2022-10-16T15:56:06;20.30;55.90
51815;DHT22;37874;53.158;6.766;2022-10-16T15:58:32;20.30;56.00
51815;DHT22;37874;53.158;6.766;2022-10-16T16:00:59;20.20;56.00
51815;DHT22;37874;53.158;6.766;2022-10-16T16:03:29;20.20;56.10
51815;DHT22;37874;53.158;6.766;2022-10-16T16:05:55;20.20;56.20
51815;DHT22;37874;53.158;6.766;2022-10-16T16:08:21;20.10;56.20
51815;DHT22;37874;53.158;6.766;2022-10-16T16:11:08;20.10;56.30
51815;DHT22;37874;53.158;6.766;2022-10-16T16:13:34;20.20;56.50
51815;DHT22;37874;53.158;6.766;2022-10-16T16:16:05;20.10;56.60
51815;DHT22;37874;53.158;6.766;2022-10-16T16:18:31;20.10;56.70
51815;DHT22;37874;53.158;6.766;2022-10-16T16:20:57;20.20;56.80
51815;DHT22;37874;53.158;6.766;2022-10-16T16:23:22;20.00;56.80
51815;DHT22;37874;53.158;6.766;2022-10-16T18:27:00;19.30;58.80
51815;DHT22;37874;53.158;6.766;2022-10-16T18:29:26;19.40;58.80
51815;DHT22;37874;53.158;6.766;2022-10-16T18:31:52;19.30;58.80
51815;DHT22;37874;53.158;6.766;2022-10-16T18:34:18;19.30;58.80
51815;DHT22;37874;53.158;6.766;2022-10-16T18:36:44;19.30;58.90
51815;DHT22;37874;53.158;6.766;2022-10-16T18:39:11;19.30;58.80
51815;DHT22;37874;53.158;6.766;2022-10-16T18:41:41;19.30;58.90
51815;DHT22;37874;53.158;6.766;2022-10-16T18:44:09;19.30;59.00
51815;DHT22;37874;53.158;6.766;2022-10-16T18:46:35;19.30;59.00
51815;DHT22;37874;53.158;6.766;2022-10-16T18:49:02;19.30;59.00
51815;DHT22;37874;53.158;6.766;2022-10-16T18:51:39;19.30;59.00
51815;DHT22;37874;53.158;6.766;2022-10-16T18:54:11;19.30;59.00
51815;DHT22;37874;53.158;6.766;2022-10-16T18:56:37;19.20;59.00
51815;DHT22;37874;53.158;6.766;2022-10-16T18:59:05;19.20;59.10
51815;DHT22;37874;53.158;6.766;2022-10-16T19:01:33;19.20;59.00
51815;DHT22;37874;53.158;6.766;2022-10-16T19:04:02;19.30;59.10
51815;DHT22;37874;53.158;6.766;2022-10-16T19:06:28;19.30;59.20
51815;DHT22;37874;53.158;6.766;2022-10-16T19:08:55;19.20;59.10
51815;DHT22;37874;53.158;6.766;2022-10-16T19:11:22;19.20;59.10
51815;DHT22;37874;53.158;6.766;2022-10-16T19:13:49;19.20;59.10
51815;DHT22;37874;53.158;6.766;2022-10-16T19:16:21;19.30;59.20
51815;DHT22;37874;53.158;6.766;2022-10-16T19:18:48;19.20;59.20
51815;DHT22;37874;53.158;6.766;2022-10-16T19:21:15;19.20;59.20
51815;DHT22;37874;53.158;6.766;2022-10-16T19:23:41;19.20;59.20
51815;DHT22;37874;53.158;6.766;2022-10-16T19:26:08;19.30;59.30
51815;DHT22;37874;53.158;6.766;2022-10-16T19:28:35;19.20;59.30
51815;DHT22;37874;53.158;6.766;2022-10-16T19:31:06;19.20;59.30
51815;DHT22;37874;53.158;6.766;2022-10-16T19:33:33;19.20;59.30
51815;DHT22;37874;53.158;6.766;2022-10-16T19:36:18;19.20;59.30
51815;DHT22;37874;53.158;6.766;2022-10-16T19:38:45;19.20;59.30
51815;DHT22;37874;53.158;6.766;2022-10-16T19:41:15;19.30;59.40
51815;DHT22;37874;53.158;6.766;2022-10-16T19:43:42;19.20;59.30
51815;DHT22;37874;53.158;6.766;2022-10-16T19:46:10;19.20;59.30
51815;DHT22;37874;53.158;6.766;2022-10-16T19:48:36;19.10;59.30
51815;DHT22;37874;53.158;6.766;2022-10-16T19:51:03;19.10;59.30
51815;DHT22;37874;53.158;6.766;2022-10-16T19:53:29;19.20;59.40
51815;DHT22;37874;53.158;6.766;2022-10-16T19:55:55;19.20;59.40
51815;DHT22;37874;53.158;6.766;2022-10-16T19:58:22;19.20;59.40
51815;DHT22;37874;53.158;6.766;2022-10-16T20:00:47;19.20;59.40
51815;DHT22;37874;53.158;6.766;2022-10-16T20:03:13;19.10;59.40
51815;DHT22;37874;53.158;6.766;2022-10-16T20:05:39;19.10;59.40
51815;DHT22;37874;53.158;6.766;2022-10-16T20:08:05;19.10;59.40
51815;DHT22;37874;53.158;6.766;2022-10-16T20:10:30;19.10;59.40
51815;DHT22;37874;53.158;6.766;2022-10-16T20:12:56;19.10;59.40
51815;DHT22;37874;53.158;6.766;2022-10-16T20:15:22;19.10;59.50
51815;DHT22;37874;53.158;6.766;2022-10-16T20:17:47;19.10;59.50
51815;DHT22;37874;53.158;6.766;2022-10-16T20:20:13;19.10;59.50
51815;DHT22;37874;53.158;6.766;2022-10-16T20:22:39;19.10;59.50
51815;DHT22;37874;53.158;6.766;2022-10-16T20:25:05;19.10;59.50
51815;DHT22;37874;53.158;6.766;2022-10-16T20:27:30;19.10;59.50
51815;DHT22;37874;53.158;6.766;2022-10-16T20:29:56;19.10;59.50
51815;DHT22;37874;53.158;6.766;2022-10-16T20:32:22;19.00;59.40
51815;DHT22;37874;53.158;6.766;2022-10-16T20:34:49;19.10;59.50
51815;DHT22;37874;53.158;6.766;2022-10-16T20:37:17;19.00;60.10
51815;DHT22;37874;53.158;6.766;2022-10-16T20:39:43;19.00;59.50
51815;DHT22;37874;53.158;6.766;2022-10-16T20:42:09;19.10;59.60
51815;DHT22;37874;53.158;6.766;2022-10-16T20:44:35;19.10;59.60
51815;DHT22;37874;53.158;6.766;2022-10-16T20:47:01;19.10;59.60
51815;DHT22;37874;53.158;6.766;2022-10-16T20:49:27;19.10;59.60
51815;DHT22;37874;53.158;6.766;2022-10-16T20:51:54;19.20;59.60
51815;DHT22;37874;53.158;6.766;2022-10-16T20:54:20;19.10;59.60
51815;DHT22;37874;53.158;6.766;2022-10-16T20:56:46;19.10;59.60
51815;DHT22;37874;53.158;6.766;2022-10-16T20:59:12;19.70;59.90
51815;DHT22;37874;53.158;6.766;2022-10-16T21:01:38;19.10;59.60
51815;DHT22;37874;53.158;6.766;2022-10-16T21:04:06;19.10;59.60
51815;DHT22;37874;53.158;6.766;2022-10-16T21:06:34;19.10;59.60
51815;DHT22;37874;53.158;6.766;2022-10-16T21:09:03;19.00;59.60
51815;DHT22;37874;53.158;6.766;2022-10-16T21:11:31;19.10;59.60
51815;DHT22;37874;53.158;6.766;2022-10-16T21:14:00;19.00;59.60
51815;DHT22;37874;53.158;6.766;2022-10-16T21:16:26;19.20;59.70
51815;DHT22;37874;53.158;6.766;2022-10-16T21:18:52;18.90;59.50
51815;DHT22;37874;53.158;6.766;2022-10-16T21:21:26;19.00;59.60
51815;DHT22;37874;53.158;6.766;2022-10-16T21:23:53;19.10;59.60
51815;DHT22;37874;53.158;6.766;2022-10-16T21:26:20;19.10;59.60
51815;DHT22;37874;53.158;6.766;2022-10-16T21:28:51;19.00;59.60
51815;DHT22;37874;53.158;6.766;2022-10-16T21:31:18;19.00;59.60
51815;DHT22;37874;53.158;6.766;2022-10-16T21:33:45;19.00;59.60
51815;DHT22;37874;53.158;6.766;2022-10-16T21:36:20;19.00;59.50
51815;DHT22;37874;53.158;6.766;2022-10-16T21:38:46;19.00;59.60
51815;DHT22;37874;53.158;6.766;2022-10-16T21:41:18;19.10;59.60
51815;DHT22;37874;53.158;6.766;2022-10-16T21:43:44;19.00;59.60
51815;DHT22;37874;53.158;6.766;2022-10-16T21:46:10;18.90;59.50
51815;DHT22;37874;53.158;6.766;2022-10-16T21:48:36;18.90;59.50
51815;DHT22;37874;53.158;6.766;2022-10-16T21:51:03;19.00;59.50
51815;DHT22;37874;53.158;6.766;2022-10-16T21:53:29;19.00;59.50
51815;DHT22;37874;53.158;6.766;2022-10-16T21:55:55;19.00;59.50
51815;DHT22;37874;53.158;6.766;2022-10-16T21:58:21;19.00;59.50
51815;DHT22;37874;53.158;6.766;2022-10-16T22:00:46;19.00;59.50
51815;DHT22;37874;53.158;6.766;2022-10-16T22:03:12;19.00;59.50
51815;DHT22;37874;53.158;6.766;2022-10-16T22:05:38;19.10;59.60
51815;DHT22;37874;53.158;6.766;2022-10-16T22:08:03;19.00;59.60
51815;DHT22;37874;53.158;6.766;2022-10-16T22:10:30;19.00;59.60
51815;DHT22;37874;53.158;6.766;2022-10-16T22:12:56;19.00;59.50
51815;DHT22;37874;53.158;6.766;2022-10-16T22:15:21;18.90;59.50
51815;DHT22;37874;53.158;6.766;2022-10-16T22:17:47;19.00;59.60
51815;DHT22;37874;53.158;6.766;2022-10-16T22:20:13;19.00;59.60
51815;DHT22;37874;53.158;6.766;2022-10-16T22:22:38;19.00;59.60
51815;DHT22;37874;53.158;6.766;2022-10-16T22:25:04;19.00;59.60
51815;DHT22;37874;53.158;6.766;2022-10-16T22:27:30;19.00;59.60
51815;DHT22;37874;53.158;6.766;2022-10-16T22:29:55;18.90;59.50
51815;DHT22;37874;53.158;6.766;2022-10-16T22:32:21;19.00;59.60
51815;DHT22;37874;53.158;6.766;2022-10-16T22:34:47;19.00;59.50
51815;DHT22;37874;53.158;6.766;2022-10-16T22:37:12;19.10;59.60
51815;DHT22;37874;53.158;6.766;2022-10-16T22:39:38;18.90;59.50
51815;DHT22;37874;53.158;6.766;2022-10-16T22:42:03;19.00;59.50
51815;DHT22;37874;53.158;6.766;2022-10-16T22:44:29;19.00;59.60